sensor_id;sensor_type;location;lat;lon;timestamp;temperature;humidity
61807;DHT22;47726;52.766;6.606;2022-08-19T00:00:19;18.10;99.90
61807;DHT22;47726;52.766;6.606;2022-08-19T00:02:45;18.10;99.90
61807;DHT22;47726;52.766;6.606;2022-08-19T00:05:11;18.10;99.90
61807;DHT22;47726;52.766;6.606;2022-08-19T00:07:39;18.10;99.90
61807;DHT22;47726;52.766;6.606;2022-08-19T00:10:06;18.00;99.90
61807;DHT22;47726;52.766;6.606;2022-08-19T00:12:32;18.00;99.90
61807;DHT22;47726;52.766;6.606;2022-08-19T00:14:58;18.00;99.90
61807;DHT22;47726;52.766;6.606;2022-08-19T00:17:23;17.90;99.90
61807;DHT22;47726;52.766;6.606;2022-08-19T00:19:49;17.90;99.90
61807;DHT22;47726;52.766;6.606;2022-08-19T00:22:15;17.80;99.90
61807;DHT22;47726;52.766;6.606;2022-08-19T00:24:43;17.80;99.90
61807;DHT22;47726;52.766;6.606;2022-08-19T00:27:09;17.80;99.90
61807;DHT22;47726;52.766;6.606;2022-08-19T00:29:35;17.80;99.90
61807;DHT22;47726;52.766;6.606;2022-08-19T00:32:00;17.70;99.90
61807;DHT22;47726;52.766;6.606;2022-08-19T00:34:26;17.70;99.90
61807;DHT22;47726;52.766;6.606;2022-08-19T00:36:56;17.70;99.90
61807;DHT22;47726;52.766;6.606;2022-08-19T00:39:23;17.70;99.90
61807;DHT22;47726;52.766;6.606;2022-08-19T00:41:50;17.70;99.90
61807;DHT22;47726;52.766;6.606;2022-08-19T00:44:22;17.70;99.90
61807;DHT22;47726;52.766;6.606;2022-08-19T00:46:50;17.70;99.90
61807;DHT22;47726;52.766;6.606;2022-08-19T00:49:34;17.70;99.90
61807;DHT22;47726;52.766;6.606;2022-08-19T00:52:07;17.60;99.90
61807;DHT22;47726;52.766;6.606;2022-08-19T00:54:35;17.60;99.90
61807;DHT22;47726;52.766;6.606;2022-08-19T00:57:05;17.60;99.90
61807;DHT22;47726;52.766;6.606;2022-08-19T00:59:34;17.60;99.90
61807;DHT22;47726;52.766;6.606;2022-08-19T01:02:01;17.50;99.90
61807;DHT22;47726;52.766;6.606;2022-08-19T01:04:27;17.60;99.90
61807;DHT22;47726;52.766;6.606;2022-08-19T01:06:53;17.50;99.90
61807;DHT22;47726;52.766;6.606;2022-08-19T01:09:18;17.50;99.90
61807;DHT22;47726;52.766;6.606;2022-08-19T01:11:44;17.50;99.90
61807;DHT22;47726;52.766;6.606;2022-08-19T01:14:10;17.50;99.90
61807;DHT22;47726;52.766;6.606;2022-08-19T01:16:38;17.50;99.90
61807;DHT22;47726;52.766;6.606;2022-08-19T01:19:26;17.40;99.90
61807;DHT22;47726;52.766;6.606;2022-08-19T01:22:12;17.40;99.90
61807;DHT22;47726;52.766;6.606;2022-08-19T01:24:40;17.40;99.90
61807;DHT22;47726;52.766;6.606;2022-08-19T01:27:07;17.40;99.90
61807;DHT22;47726;52.766;6.606;2022-08-19T01:29:33;17.40;99.90
61807;DHT22;47726;52.766;6.606;2022-08-19T01:32:00;17.30;99.90
61807;DHT22;47726;52.766;6.606;2022-08-19T01:34:26;17.30;99.90
61807;DHT22;47726;52.766;6.606;2022-08-19T01:36:52;17.30;99.90
61807;DHT22;47726;52.766;6.606;2022-08-19T01:39:21;17.30;99.90
61807;DHT22;47726;52.766;6.606;2022-08-19T01:41:48;17.30;99.90
61807;DHT22;47726;52.766;6.606;2022-08-19T01:44:14;17.30;99.90
61807;DHT22;47726;52.766;6.606;2022-08-19T01:46:42;17.30;99.90
61807;DHT22;47726;52.766;6.606;2022-08-19T01:49:09;17.20;99.90
61807;DHT22;47726;52.766;6.606;2022-08-19T01:51:36;17.20;99.90
61807;DHT22;47726;52.766;6.606;2022-08-19T01:54:02;17.20;99.90
61807;DHT22;47726;52.766;6.606;2022-08-19T01:56:27;17.20;99.90
61807;DHT22;47726;52.766;6.606;2022-08-19T01:58:58;17.20;99.90
61807;DHT22;47726;52.766;6.606;2022-08-19T02:01:24;17.20;99.90
61807;DHT22;47726;52.766;6.606;2022-08-19T02:03:49;17.10;99.90
61807;DHT22;47726;52.766;6.606;2022-08-19T02:06:17;17.10;99.90
61807;DHT22;47726;52.766;6.606;2022-08-19T02:08:42;17.10;99.90
61807;DHT22;47726;52.766;6.606;2022-08-19T02:11:22;17.10;99.90
61807;DHT22;47726;52.766;6.606;2022-08-19T02:13:48;17.00;99.90
61807;DHT22;47726;52.766;6.606;2022-08-19T02:16:16;17.00;99.90
61807;DHT22;47726;52.766;6.606;2022-08-19T02:18:41;17.00;99.90
61807;DHT22;47726;52.766;6.606;2022-08-19T02:21:07;17.00;99.90
61807;DHT22;47726;52.766;6.606;2022-08-19T02:23:33;16.90;99.90
61807;DHT22;47726;52.766;6.606;2022-08-19T02:25:58;16.90;99.90
61807;DHT22;47726;52.766;6.606;2022-08-19T02:28:24;16.90;99.90
61807;DHT22;47726;52.766;6.606;2022-08-19T02:30:49;16.90;99.90
61807;DHT22;47726;52.766;6.606;2022-08-19T02:33:16;16.80;99.90
61807;DHT22;47726;52.766;6.606;2022-08-19T02:35:45;16.80;99.90
61807;DHT22;47726;52.766;6.606;2022-08-19T02:38:11;16.80;99.90
61807;DHT22;47726;52.766;6.606;2022-08-19T02:40:57;16.70;99.90
61807;DHT22;47726;52.766;6.606;2022-08-19T02:43:24;16.60;99.90
61807;DHT22;47726;52.766;6.606;2022-08-19T02:45:51;16.60;99.90
61807;DHT22;47726;52.766;6.606;2022-08-19T02:48:19;16.60;99.90
61807;DHT22;47726;52.766;6.606;2022-08-19T02:50:46;16.60;99.90
61807;DHT22;47726;52.766;6.606;2022-08-19T02:53:11;16.60;99.90
61807;DHT22;47726;52.766;6.606;2022-08-19T02:55:45;16.60;99.90
61807;DHT22;47726;52.766;6.606;2022-08-19T02:58:12;16.50;99.90
61807;DHT22;47726;52.766;6.606;2022-08-19T03:00:47;16.50;99.90
61807;DHT22;47726;52.766;6.606;2022-08-19T03:03:13;16.50;99.90
61807;DHT22;47726;52.766;6.606;2022-08-19T03:05:39;16.50;99.90
61807;DHT22;47726;52.766;6.606;2022-08-19T03:08:05;16.50;99.90
61807;DHT22;47726;52.766;6.606;2022-08-19T03:10:32;16.50;99.90
61807;DHT22;47726;52.766;6.606;2022-08-19T03:12:57;16.40;99.90
61807;DHT22;47726;52.766;6.606;2022-08-19T03:15:23;16.40;99.90
61807;DHT22;47726;52.766;6.606;2022-08-19T03:17:49;16.40;99.90
61807;DHT22;47726;52.766;6.606;2022-08-19T03:20:14;16.30;99.90
61807;DHT22;47726;52.766;6.606;2022-08-19T03:22:40;16.30;99.90
61807;DHT22;47726;52.766;6.606;2022-08-19T03:25:06;16.30;99.90
61807;DHT22;47726;52.766;6.606;2022-08-19T03:27:31;16.30;99.90
61807;DHT22;47726;52.766;6.606;2022-08-19T03:29:57;16.30;99.90
61807;DHT22;47726;52.766;6.606;2022-08-19T03:32:23;16.30;99.90
61807;DHT22;47726;52.766;6.606;2022-08-19T03:34:49;16.30;99.90
61807;DHT22;47726;52.766;6.606;2022-08-19T03:37:16;16.30;99.90
61807;DHT22;47726;52.766;6.606;2022-08-19T03:39:41;16.30;99.90
61807;DHT22;47726;52.766;6.606;2022-08-19T03:42:08;16.30;99.90
61807;DHT22;47726;52.766;6.606;2022-08-19T03:44:34;16.20;99.90
61807;DHT22;47726;52.766;6.606;2022-08-19T03:47:03;16.20;99.90
61807;DHT22;47726;52.766;6.606;2022-08-19T03:49:31;16.20;99.90
61807;DHT22;47726;52.766;6.606;2022-08-19T03:51:59;16.20;99.90
61807;DHT22;47726;52.766;6.606;2022-08-19T03:54:28;16.20;99.90
61807;DHT22;47726;52.766;6.606;2022-08-19T03:56:55;16.10;99.90
61807;DHT22;47726;52.766;6.606;2022-08-19T03:59:27;16.10;99.90
61807;DHT22;47726;52.766;6.606;2022-08-19T04:01:54;16.10;99.90
61807;DHT22;47726;52.766;6.606;2022-08-19T04:04:20;16.00;99.90
61807;DHT22;47726;52.766;6.606;2022-08-19T04:06:46;16.00;99.90
61807;DHT22;47726;52.766;6.606;2022-08-19T04:09:12;16.00;99.90
61807;DHT22;47726;52.766;6.606;2022-08-19T04:11:41;16.00;99.90
61807;DHT22;47726;52.766;6.606;2022-08-19T04:14:10;15.90;99.90
61807;DHT22;47726;52.766;6.606;2022-08-19T04:16:36;15.90;99.90
61807;DHT22;47726;52.766;6.606;2022-08-19T04:19:03;15.80;99.90
61807;DHT22;47726;52.766;6.606;2022-08-19T04:21:29;15.80;99.90
61807;DHT22;47726;52.766;6.606;2022-08-19T04:23:56;15.70;99.90
61807;DHT22;47726;52.766;6.606;2022-08-19T04:26:27;15.70;99.90
61807;DHT22;47726;52.766;6.606;2022-08-19T04:28:54;15.70;99.90
61807;DHT22;47726;52.766;6.606;2022-08-19T04:31:26;15.60;99.90
61807;DHT22;47726;52.766;6.606;2022-08-19T04:33:53;15.60;99.90
61807;DHT22;47726;52.766;6.606;2022-08-19T04:36:40;15.60;99.90
61807;DHT22;47726;52.766;6.606;2022-08-19T04:39:12;15.60;99.90
61807;DHT22;47726;52.766;6.606;2022-08-19T04:41:38;15.60;99.90
61807;DHT22;47726;52.766;6.606;2022-08-19T04:44:23;15.60;99.90
61807;DHT22;47726;52.766;6.606;2022-08-19T04:46:50;15.60;99.90
61807;DHT22;47726;52.766;6.606;2022-08-19T04:49:18;15.60;99.90
61807;DHT22;47726;52.766;6.606;2022-08-19T04:51:45;15.60;99.90
61807;DHT22;47726;52.766;6.606;2022-08-19T04:54:13;15.60;99.90
61807;DHT22;47726;52.766;6.606;2022-08-19T04:56:39;15.60;99.90
61807;DHT22;47726;52.766;6.606;2022-08-19T04:59:05;15.60;99.90
61807;DHT22;47726;52.766;6.606;2022-08-19T05:01:33;15.60;99.90
61807;DHT22;47726;52.766;6.606;2022-08-19T05:04:04;15.60;99.90
61807;DHT22;47726;52.766;6.606;2022-08-19T05:06:31;15.60;99.90
61807;DHT22;47726;52.766;6.606;2022-08-19T05:08:59;15.60;99.90
61807;DHT22;47726;52.766;6.606;2022-08-19T05:11:27;15.60;99.90
61807;DHT22;47726;52.766;6.606;2022-08-19T05:13:54;15.60;99.90
61807;DHT22;47726;52.766;6.606;2022-08-19T05:16:21;15.70;99.90
61807;DHT22;47726;52.766;6.606;2022-08-19T05:18:48;15.70;99.90
61807;DHT22;47726;52.766;6.606;2022-08-19T05:21:33;15.70;99.90
61807;DHT22;47726;52.766;6.606;2022-08-19T05:24:19;15.70;99.90
61807;DHT22;47726;52.766;6.606;2022-08-19T05:26:47;15.70;99.90
61807;DHT22;47726;52.766;6.606;2022-08-19T05:29:18;15.70;99.90
61807;DHT22;47726;52.766;6.606;2022-08-19T05:31:45;15.70;99.90
61807;DHT22;47726;52.766;6.606;2022-08-19T05:34:12;15.70;99.90
61807;DHT22;47726;52.766;6.606;2022-08-19T05:36:40;15.70;99.90
61807;DHT22;47726;52.766;6.606;2022-08-19T05:39:08;15.70;99.90
61807;DHT22;47726;52.766;6.606;2022-08-19T05:41:35;15.70;99.90
61807;DHT22;47726;52.766;6.606;2022-08-19T05:44:03;15.70;99.90
61807;DHT22;47726;52.766;6.606;2022-08-19T05:46:31;15.70;99.90
61807;DHT22;47726;52.766;6.606;2022-08-19T05:48:57;15.80;99.90
61807;DHT22;47726;52.766;6.606;2022-08-19T05:51:23;15.80;99.90
61807;DHT22;47726;52.766;6.606;2022-08-19T05:53:51;15.90;99.90
61807;DHT22;47726;52.766;6.606;2022-08-19T05:56:18;15.90;99.90
61807;DHT22;47726;52.766;6.606;2022-08-19T05:58:44;16.10;99.90
61807;DHT22;47726;52.766;6.606;2022-08-19T06:01:16;16.20;99.90
61807;DHT22;47726;52.766;6.606;2022-08-19T06:03:42;16.40;99.90
61807;DHT22;47726;52.766;6.606;2022-08-19T06:06:10;16.60;99.90
61807;DHT22;47726;52.766;6.606;2022-08-19T06:08:36;16.80;99.90
61807;DHT22;47726;52.766;6.606;2022-08-19T06:11:15;16.90;99.90
61807;DHT22;47726;52.766;6.606;2022-08-19T06:13:41;17.10;99.90
61807;DHT22;47726;52.766;6.606;2022-08-19T06:16:07;17.30;99.90
61807;DHT22;47726;52.766;6.606;2022-08-19T06:18:32;17.50;99.90
61807;DHT22;47726;52.766;6.606;2022-08-19T06:20:58;17.70;99.90
61807;DHT22;47726;52.766;6.606;2022-08-19T06:23:24;18.00;99.90
61807;DHT22;47726;52.766;6.606;2022-08-19T06:25:51;18.20;99.90
61807;DHT22;47726;52.766;6.606;2022-08-19T06:28:16;18.40;99.90
61807;DHT22;47726;52.766;6.606;2022-08-19T06:30:42;18.60;99.90
61807;DHT22;47726;52.766;6.606;2022-08-19T06:33:07;18.80;99.90
61807;DHT22;47726;52.766;6.606;2022-08-19T06:35:38;19.00;99.90
61807;DHT22;47726;52.766;6.606;2022-08-19T06:38:04;19.20;99.90
61807;DHT22;47726;52.766;6.606;2022-08-19T06:40:30;19.40;99.90
61807;DHT22;47726;52.766;6.606;2022-08-19T06:42:56;19.60;99.90
61807;DHT22;47726;52.766;6.606;2022-08-19T06:45:24;19.80;99.90
61807;DHT22;47726;52.766;6.606;2022-08-19T06:47:49;20.00;99.90
61807;DHT22;47726;52.766;6.606;2022-08-19T06:50:15;20.10;99.90
61807;DHT22;47726;52.766;6.606;2022-08-19T06:52:40;20.40;99.90
61807;DHT22;47726;52.766;6.606;2022-08-19T06:55:06;20.50;99.90
61807;DHT22;47726;52.766;6.606;2022-08-19T06:57:33;20.60;99.90
61807;DHT22;47726;52.766;6.606;2022-08-19T06:59:58;20.80;99.90
61807;DHT22;47726;52.766;6.606;2022-08-19T07:02:25;20.90;99.90
61807;DHT22;47726;52.766;6.606;2022-08-19T07:04:52;21.00;99.90
61807;DHT22;47726;52.766;6.606;2022-08-19T07:07:19;21.10;99.90
61807;DHT22;47726;52.766;6.606;2022-08-19T07:09:46;21.30;99.90
61807;DHT22;47726;52.766;6.606;2022-08-19T07:12:13;21.40;99.90
61807;DHT22;47726;52.766;6.606;2022-08-19T07:14:41;21.60;99.90
61807;DHT22;47726;52.766;6.606;2022-08-19T07:17:09;21.70;99.90
61807;DHT22;47726;52.766;6.606;2022-08-19T07:19:36;21.90;99.90
61807;DHT22;47726;52.766;6.606;2022-08-19T07:22:03;22.00;99.90
61807;DHT22;47726;52.766;6.606;2022-08-19T07:24:29;22.20;99.90
61807;DHT22;47726;52.766;6.606;2022-08-19T07:26:58;22.40;99.90
61807;DHT22;47726;52.766;6.606;2022-08-19T07:29:27;22.60;99.90
61807;DHT22;47726;52.766;6.606;2022-08-19T07:31:53;22.70;99.90
61807;DHT22;47726;52.766;6.606;2022-08-19T07:34:23;23.00;99.90
61807;DHT22;47726;52.766;6.606;2022-08-19T07:36:49;23.20;99.90
61807;DHT22;47726;52.766;6.606;2022-08-19T07:39:20;23.40;99.90
61807;DHT22;47726;52.766;6.606;2022-08-19T07:41:46;23.50;99.90
61807;DHT22;47726;52.766;6.606;2022-08-19T07:44:13;23.70;99.90
61807;DHT22;47726;52.766;6.606;2022-08-19T07:46:42;23.90;99.90
61807;DHT22;47726;52.766;6.606;2022-08-19T07:49:08;24.10;99.90
61807;DHT22;47726;52.766;6.606;2022-08-19T07:51:39;24.10;99.90
61807;DHT22;47726;52.766;6.606;2022-08-19T07:54:05;24.20;99.90
61807;DHT22;47726;52.766;6.606;2022-08-19T07:56:31;24.30;99.90
61807;DHT22;47726;52.766;6.606;2022-08-19T07:58:56;24.50;99.90
61807;DHT22;47726;52.766;6.606;2022-08-19T08:01:24;24.60;99.90
61807;DHT22;47726;52.766;6.606;2022-08-19T08:03:51;24.80;99.90
61807;DHT22;47726;52.766;6.606;2022-08-19T08:06:36;24.80;99.90
61807;DHT22;47726;52.766;6.606;2022-08-19T08:09:27;25.00;99.90
61807;DHT22;47726;52.766;6.606;2022-08-19T08:11:55;25.20;99.90
61807;DHT22;47726;52.766;6.606;2022-08-19T08:14:31;25.30;99.90
61807;DHT22;47726;52.766;6.606;2022-08-19T08:16:58;25.50;99.90
61807;DHT22;47726;52.766;6.606;2022-08-19T08:19:25;25.70;99.90
61807;DHT22;47726;52.766;6.606;2022-08-19T08:21:54;25.80;99.90
61807;DHT22;47726;52.766;6.606;2022-08-19T08:24:19;26.00;99.90
61807;DHT22;47726;52.766;6.606;2022-08-19T08:26:45;26.10;99.90
61807;DHT22;47726;52.766;6.606;2022-08-19T08:29:12;26.10;99.90
61807;DHT22;47726;52.766;6.606;2022-08-19T08:31:39;26.20;99.90
61807;DHT22;47726;52.766;6.606;2022-08-19T08:34:06;26.30;99.80
61807;DHT22;47726;52.766;6.606;2022-08-19T08:36:31;26.40;98.80
61807;DHT22;47726;52.766;6.606;2022-08-19T08:39:00;26.40;98.60
61807;DHT22;47726;52.766;6.606;2022-08-19T08:43:58;26.60;97.50
61807;DHT22;47726;52.766;6.606;2022-08-19T08:46:33;26.60;97.20
61807;DHT22;47726;52.766;6.606;2022-08-19T08:49:19;26.50;96.70
61807;DHT22;47726;52.766;6.606;2022-08-19T08:52:15;26.70;96.30
61807;DHT22;47726;52.766;6.606;2022-08-19T08:54:43;26.80;96.20
61807;DHT22;47726;52.766;6.606;2022-08-19T08:57:17;27.00;96.70
61807;DHT22;47726;52.766;6.606;2022-08-19T08:59:47;27.10;95.90
61807;DHT22;47726;52.766;6.606;2022-08-19T09:02:20;27.20;95.60
61807;DHT22;47726;52.766;6.606;2022-08-19T09:04:45;27.40;96.00
61807;DHT22;47726;52.766;6.606;2022-08-19T09:10:37;27.70;95.40
61807;DHT22;47726;52.766;6.606;2022-08-19T09:13:26;27.90;93.90
61807;DHT22;47726;52.766;6.606;2022-08-19T09:16:07;27.90;93.80
61807;DHT22;47726;52.766;6.606;2022-08-19T09:18:49;27.90;93.40
61807;DHT22;47726;52.766;6.606;2022-08-19T09:21:18;28.00;93.70
61807;DHT22;47726;52.766;6.606;2022-08-19T09:23:44;28.10;94.40
61807;DHT22;47726;52.766;6.606;2022-08-19T09:26:13;28.30;94.10
61807;DHT22;47726;52.766;6.606;2022-08-19T09:28:40;28.40;93.90
61807;DHT22;47726;52.766;6.606;2022-08-19T09:31:13;28.60;93.80
61807;DHT22;47726;52.766;6.606;2022-08-19T09:33:39;28.70;92.60
61807;DHT22;47726;52.766;6.606;2022-08-19T09:36:07;28.70;90.40
61807;DHT22;47726;52.766;6.606;2022-08-19T09:38:34;28.80;91.10
61807;DHT22;47726;52.766;6.606;2022-08-19T09:41:09;28.90;92.00
61807;DHT22;47726;52.766;6.606;2022-08-19T09:43:37;28.90;91.00
61807;DHT22;47726;52.766;6.606;2022-08-19T09:46:04;29.00;91.40
61807;DHT22;47726;52.766;6.606;2022-08-19T09:48:35;29.00;90.60
61807;DHT22;47726;52.766;6.606;2022-08-19T09:51:12;29.10;90.70
61807;DHT22;47726;52.766;6.606;2022-08-19T09:53:42;29.20;90.10
61807;DHT22;47726;52.766;6.606;2022-08-19T09:56:09;29.30;89.90
61807;DHT22;47726;52.766;6.606;2022-08-19T09:58:35;29.40;89.50
61807;DHT22;47726;52.766;6.606;2022-08-19T10:01:02;29.40;88.80
61807;DHT22;47726;52.766;6.606;2022-08-19T10:03:30;29.40;87.20
61807;DHT22;47726;52.766;6.606;2022-08-19T10:05:57;29.40;87.20
61807;DHT22;47726;52.766;6.606;2022-08-19T10:08:30;29.40;86.00
61807;DHT22;47726;52.766;6.606;2022-08-19T10:10:57;29.50;86.60
61807;DHT22;47726;52.766;6.606;2022-08-19T10:13:25;29.60;85.50
61807;DHT22;47726;52.766;6.606;2022-08-19T10:15:52;29.70;85.20
61807;DHT22;47726;52.766;6.606;2022-08-19T10:18:20;29.70;85.20
61807;DHT22;47726;52.766;6.606;2022-08-19T10:20:48;29.80;85.00
61807;DHT22;47726;52.766;6.606;2022-08-19T10:23:15;29.80;83.80
61807;DHT22;47726;52.766;6.606;2022-08-19T10:25:42;29.80;84.30
61807;DHT22;47726;52.766;6.606;2022-08-19T10:28:08;29.90;84.70
61807;DHT22;47726;52.766;6.606;2022-08-19T10:30:37;29.80;83.60
61807;DHT22;47726;52.766;6.606;2022-08-19T10:33:04;29.70;82.20
61807;DHT22;47726;52.766;6.606;2022-08-19T10:35:30;29.80;81.00
61807;DHT22;47726;52.766;6.606;2022-08-19T10:37:56;29.90;82.40
61807;DHT22;47726;52.766;6.606;2022-08-19T10:40:27;29.90;82.00
61807;DHT22;47726;52.766;6.606;2022-08-19T10:42:54;30.00;80.60
61807;DHT22;47726;52.766;6.606;2022-08-19T10:45:21;30.00;81.10
61807;DHT22;47726;52.766;6.606;2022-08-19T10:47:54;30.10;80.50
61807;DHT22;47726;52.766;6.606;2022-08-19T10:50:20;29.90;77.90
61807;DHT22;47726;52.766;6.606;2022-08-19T10:53:06;30.00;79.60
61807;DHT22;47726;52.766;6.606;2022-08-19T10:55:34;30.10;79.60
61807;DHT22;47726;52.766;6.606;2022-08-19T10:58:20;30.00;78.00
61807;DHT22;47726;52.766;6.606;2022-08-19T11:00:52;29.80;77.50
61807;DHT22;47726;52.766;6.606;2022-08-19T11:03:18;29.70;77.90
61807;DHT22;47726;52.766;6.606;2022-08-19T11:05:44;29.70;78.50
61807;DHT22;47726;52.766;6.606;2022-08-19T11:08:10;29.60;76.80
61807;DHT22;47726;52.766;6.606;2022-08-19T11:10:41;29.50;77.30
61807;DHT22;47726;52.766;6.606;2022-08-19T11:13:08;29.60;76.60
61807;DHT22;47726;52.766;6.606;2022-08-19T11:15:33;29.60;77.60
61807;DHT22;47726;52.766;6.606;2022-08-19T11:17:59;29.70;78.40
61807;DHT22;47726;52.766;6.606;2022-08-19T11:20:25;29.70;79.40
61807;DHT22;47726;52.766;6.606;2022-08-19T11:22:52;29.80;80.30
61807;DHT22;47726;52.766;6.606;2022-08-19T11:25:18;29.90;81.30
61807;DHT22;47726;52.766;6.606;2022-08-19T11:27:43;30.00;81.70
61807;DHT22;47726;52.766;6.606;2022-08-19T11:30:12;30.10;81.50
61807;DHT22;47726;52.766;6.606;2022-08-19T11:32:37;30.00;80.90
61807;DHT22;47726;52.766;6.606;2022-08-19T11:35:03;30.10;81.30
61807;DHT22;47726;52.766;6.606;2022-08-19T11:37:29;30.10;81.00
61807;DHT22;47726;52.766;6.606;2022-08-19T11:39:55;30.10;80.10
61807;DHT22;47726;52.766;6.606;2022-08-19T11:42:20;30.00;79.10
61807;DHT22;47726;52.766;6.606;2022-08-19T11:45:05;30.00;79.30
61807;DHT22;47726;52.766;6.606;2022-08-19T11:47:31;30.00;80.10
61807;DHT22;47726;52.766;6.606;2022-08-19T11:49:56;30.00;79.60
61807;DHT22;47726;52.766;6.606;2022-08-19T11:52:22;30.00;79.70
61807;DHT22;47726;52.766;6.606;2022-08-19T11:54:48;30.10;79.70
61807;DHT22;47726;52.766;6.606;2022-08-19T11:57:13;30.20;79.80
61807;DHT22;47726;52.766;6.606;2022-08-19T11:59:42;30.20;79.70
61807;DHT22;47726;52.766;6.606;2022-08-19T12:02:12;30.10;78.20
61807;DHT22;47726;52.766;6.606;2022-08-19T12:04:39;30.00;77.60
61807;DHT22;47726;52.766;6.606;2022-08-19T12:07:04;30.00;76.90
61807;DHT22;47726;52.766;6.606;2022-08-19T12:09:30;30.00;76.60
61807;DHT22;47726;52.766;6.606;2022-08-19T12:11:57;30.00;77.10
61807;DHT22;47726;52.766;6.606;2022-08-19T12:14:22;30.00;77.30
61807;DHT22;47726;52.766;6.606;2022-08-19T12:16:48;29.60;74.10
61807;DHT22;47726;52.766;6.606;2022-08-19T12:19:15;29.60;76.50
61807;DHT22;47726;52.766;6.606;2022-08-19T12:21:40;29.60;77.80
61807;DHT22;47726;52.766;6.606;2022-08-19T12:24:07;29.60;75.10
61807;DHT22;47726;52.766;6.606;2022-08-19T12:26:34;29.40;74.00
61807;DHT22;47726;52.766;6.606;2022-08-19T12:29:00;29.20;74.80
61807;DHT22;47726;52.766;6.606;2022-08-19T12:31:27;29.20;75.90
61807;DHT22;47726;52.766;6.606;2022-08-19T12:33:53;29.20;75.40
61807;DHT22;47726;52.766;6.606;2022-08-19T12:36:19;29.20;75.40
61807;DHT22;47726;52.766;6.606;2022-08-19T12:38:45;29.20;73.90
61807;DHT22;47726;52.766;6.606;2022-08-19T12:41:15;29.10;72.70
61807;DHT22;47726;52.766;6.606;2022-08-19T12:43:42;29.20;73.40
61807;DHT22;47726;52.766;6.606;2022-08-19T12:46:09;29.20;72.80
61807;DHT22;47726;52.766;6.606;2022-08-19T12:48:35;29.20;71.90
61807;DHT22;47726;52.766;6.606;2022-08-19T12:51:06;29.20;70.70
61807;DHT22;47726;52.766;6.606;2022-08-19T12:53:32;29.30;71.90
61807;DHT22;47726;52.766;6.606;2022-08-19T12:55:58;29.30;72.60
61807;DHT22;47726;52.766;6.606;2022-08-19T12:58:25;29.40;69.30
61807;DHT22;47726;52.766;6.606;2022-08-19T13:00:52;29.30;69.30
61807;DHT22;47726;52.766;6.606;2022-08-19T13:03:18;29.10;70.50
61807;DHT22;47726;52.766;6.606;2022-08-19T13:05:43;29.20;70.90
61807;DHT22;47726;52.766;6.606;2022-08-19T13:08:09;29.20;71.20
61807;DHT22;47726;52.766;6.606;2022-08-19T13:10:35;29.30;70.20
61807;DHT22;47726;52.766;6.606;2022-08-19T13:13:03;29.20;70.00
61807;DHT22;47726;52.766;6.606;2022-08-19T13:15:34;29.30;70.60
61807;DHT22;47726;52.766;6.606;2022-08-19T13:18:00;29.50;70.20
61807;DHT22;47726;52.766;6.606;2022-08-19T13:20:25;29.40;67.60
61807;DHT22;47726;52.766;6.606;2022-08-19T13:22:51;29.40;68.90
61807;DHT22;47726;52.766;6.606;2022-08-19T13:25:17;29.50;70.20
61807;DHT22;47726;52.766;6.606;2022-08-19T13:27:46;29.50;70.40
61807;DHT22;47726;52.766;6.606;2022-08-19T13:30:13;29.40;68.30
61807;DHT22;47726;52.766;6.606;2022-08-19T13:32:57;29.40;67.70
61807;DHT22;47726;52.766;6.606;2022-08-19T13:35:48;29.40;69.10
61807;DHT22;47726;52.766;6.606;2022-08-19T13:38:19;29.40;70.00
61807;DHT22;47726;52.766;6.606;2022-08-19T13:40:46;29.40;70.40
61807;DHT22;47726;52.766;6.606;2022-08-19T13:43:12;29.50;71.10
61807;DHT22;47726;52.766;6.606;2022-08-19T13:45:39;29.50;71.10
61807;DHT22;47726;52.766;6.606;2022-08-19T13:48:06;29.60;71.30
61807;DHT22;47726;52.766;6.606;2022-08-19T13:50:39;29.60;72.50
61807;DHT22;47726;52.766;6.606;2022-08-19T13:53:07;29.60;71.30
61807;DHT22;47726;52.766;6.606;2022-08-19T13:55:33;29.50;69.70
61807;DHT22;47726;52.766;6.606;2022-08-19T13:58:00;29.40;69.80
61807;DHT22;47726;52.766;6.606;2022-08-19T14:00:30;29.40;70.50
61807;DHT22;47726;52.766;6.606;2022-08-19T14:02:57;29.40;70.40
61807;DHT22;47726;52.766;6.606;2022-08-19T14:05:24;29.30;70.40
61807;DHT22;47726;52.766;6.606;2022-08-19T14:07:51;29.20;71.50
61807;DHT22;47726;52.766;6.606;2022-08-19T14:10:17;29.30;72.70
61807;DHT22;47726;52.766;6.606;2022-08-19T14:12:44;29.40;71.50
61807;DHT22;47726;52.766;6.606;2022-08-19T14:15:11;29.40;71.70
61807;DHT22;47726;52.766;6.606;2022-08-19T14:17:41;29.40;72.10
61807;DHT22;47726;52.766;6.606;2022-08-19T14:20:09;29.30;71.60
61807;DHT22;47726;52.766;6.606;2022-08-19T14:22:37;29.40;72.50
61807;DHT22;47726;52.766;6.606;2022-08-19T14:25:04;29.40;72.60
61807;DHT22;47726;52.766;6.606;2022-08-19T14:27:33;29.40;73.40
61807;DHT22;47726;52.766;6.606;2022-08-19T14:29:59;29.40;73.90
61807;DHT22;47726;52.766;6.606;2022-08-19T14:32:24;29.50;74.80
61807;DHT22;47726;52.766;6.606;2022-08-19T14:34:53;29.50;74.80
61807;DHT22;47726;52.766;6.606;2022-08-19T14:37:20;29.50;74.00
61807;DHT22;47726;52.766;6.606;2022-08-19T14:39:46;29.50;74.80
61807;DHT22;47726;52.766;6.606;2022-08-19T14:42:12;29.40;76.20
61807;DHT22;47726;52.766;6.606;2022-08-19T14:44:40;29.40;77.30
61807;DHT22;47726;52.766;6.606;2022-08-19T14:47:06;29.30;77.50
61807;DHT22;47726;52.766;6.606;2022-08-19T14:49:33;29.20;77.60
61807;DHT22;47726;52.766;6.606;2022-08-19T14:51:59;29.20;78.20
61807;DHT22;47726;52.766;6.606;2022-08-19T14:54:25;29.10;78.70
61807;DHT22;47726;52.766;6.606;2022-08-19T14:56:51;29.10;79.10
61807;DHT22;47726;52.766;6.606;2022-08-19T14:59:17;29.20;79.70
61807;DHT22;47726;52.766;6.606;2022-08-19T15:01:42;29.20;79.90
61807;DHT22;47726;52.766;6.606;2022-08-19T15:04:08;29.10;79.90
61807;DHT22;47726;52.766;6.606;2022-08-19T15:06:34;29.10;80.50
61807;DHT22;47726;52.766;6.606;2022-08-19T15:09:00;29.00;80.40
61807;DHT22;47726;52.766;6.606;2022-08-19T15:11:27;29.00;81.00
61807;DHT22;47726;52.766;6.606;2022-08-19T15:13:54;28.90;81.50
61807;DHT22;47726;52.766;6.606;2022-08-19T15:16:20;28.80;81.70
61807;DHT22;47726;52.766;6.606;2022-08-19T15:18:50;28.70;81.70
61807;DHT22;47726;52.766;6.606;2022-08-19T15:21:17;28.60;81.90
61807;DHT22;47726;52.766;6.606;2022-08-19T15:23:44;28.60;82.20
61807;DHT22;47726;52.766;6.606;2022-08-19T15:26:10;28.40;82.30
61807;DHT22;47726;52.766;6.606;2022-08-19T15:28:37;28.30;82.90
61807;DHT22;47726;52.766;6.606;2022-08-19T15:31:03;28.20;84.40
61807;DHT22;47726;52.766;6.606;2022-08-19T15:33:32;28.20;85.40
61807;DHT22;47726;52.766;6.606;2022-08-19T15:36:00;28.10;85.90
61807;DHT22;47726;52.766;6.606;2022-08-19T15:38:26;27.90;84.70
61807;DHT22;47726;52.766;6.606;2022-08-19T15:40:52;27.80;84.90